createdAt,value
2023-04-16T00:00:15.301Z,7.16
2023-04-16T00:02:01.146Z,7.10
2023-04-16T00:03:34.330Z,7.09
2023-04-16T00:04:49.418Z,7.07
2023-04-16T00:06:11.913Z,7.07
2023-04-16T00:07:45.866Z,7.07
2023-04-16T00:22:53.439Z,7.03
2023-04-16T00:24:27.439Z,7.00
2023-04-16T00:25:51.060Z,6.98
2023-04-16T00:27:24.971Z,6.97
2023-04-16T00:28:58.948Z,6.96
2023-04-16T00:30:25.362Z,6.96
2023-04-16T00:31:59.320Z,6.95
2023-04-16T00:33:34.819Z,6.92
2023-04-16T00:35:08.967Z,6.91
2023-04-16T00:36:43.340Z,6.90
2023-04-16T00:45:40.944Z,6.91
2023-04-16T00:47:13.395Z,6.86
2023-04-16T00:48:45.969Z,6.86
2023-04-16T00:50:18.503Z,6.85
2023-04-16T00:51:23.906Z,6.85
2023-04-16T00:52:56.560Z,6.86
2023-04-16T00:56:02.046Z,6.88
2023-04-16T00:57:27.560Z,6.87
2023-04-16T00:58:58.688Z,6.85
2023-04-16T01:00:31.221Z,6.84
2023-04-16T01:01:56.401Z,6.82
2023-04-16T01:03:11.228Z,6.78
2023-04-16T01:04:42.799Z,6.75
2023-04-16T01:05:58.407Z,6.73
2023-04-16T01:07:31.047Z,6.73
2023-04-16T01:08:45.128Z,6.71
2023-04-16T01:10:17.798Z,6.72
2023-04-16T01:11:50.483Z,6.71
2023-04-16T01:13:23.007Z,6.69
2023-04-16T01:14:55.534Z,6.67
2023-04-16T01:18:27.274Z,6.70
2023-04-16T01:19:39.653Z,6.69
2023-04-16T01:21:12.452Z,6.71
2023-04-16T01:22:45.101Z,6.70
2023-04-16T01:24:17.931Z,6.68
2023-04-16T01:25:43.780Z,6.67
2023-04-16T01:38:59.806Z,6.49
2023-04-16T01:40:12.274Z,6.44
2023-04-16T01:40:59.790Z,6.43
2023-04-16T01:42:24.957Z,6.44
2023-04-16T01:43:47.696Z,6.46
2023-04-16T01:45:10.292Z,6.44
2023-04-16T01:46:06.928Z,6.44
2023-04-16T01:47:28.470Z,6.42
2023-04-16T01:48:52.620Z,6.41
2023-04-16T01:49:52.026Z,6.44
2023-04-16T01:51:24.494Z,6.46
2023-04-16T01:52:46.126Z,6.42
2023-04-16T01:54:00.465Z,6.38
2023-04-16T01:55:26.620Z,6.38
2023-04-16T01:56:59.242Z,6.40
2023-04-16T01:58:33.217Z,6.40
2023-04-16T01:59:54.713Z,6.38
2023-04-16T02:01:27.914Z,6.36
2023-04-16T02:05:46.968Z,6.34
2023-04-16T02:07:19.588Z,6.32
2023-04-16T02:08:54.101Z,6.30
2023-04-16T02:10:26.550Z,6.28
2023-04-16T02:11:48.195Z,6.29
2023-04-16T02:13:11.023Z,6.28
2023-04-16T02:14:32.125Z,6.28
2023-04-16T02:15:59.136Z,6.29
2023-04-16T02:17:33.063Z,6.29
2023-04-16T02:18:59.572Z,6.31
2023-04-16T02:20:10.055Z,6.32
2023-04-16T02:24:21.551Z,6.34
2023-04-16T02:27:31.856Z,6.30
2023-04-16T02:29:04.299Z,6.25
2023-04-16T02:30:05.105Z,6.25
2023-04-16T02:31:30.705Z,6.27
2023-04-16T02:33:04.386Z,6.24
2023-04-16T02:34:27.330Z,6.21
2023-04-16T02:35:39.511Z,6.22
2023-04-16T02:36:59.647Z,6.22
2023-04-16T02:38:33.212Z,6.22
2023-04-16T02:41:31.877Z,6.20
2023-04-16T02:43:03.800Z,6.19
2023-04-16T02:44:34.892Z,6.18
2023-04-16T02:45:44.345Z,6.17
2023-04-16T02:47:16.827Z,6.13
2023-04-16T02:48:49.586Z,6.06
2023-04-16T02:50:04.968Z,6.03
2023-04-16T02:51:37.512Z,6.01
2023-04-16T02:53:10.006Z,6.02
2023-04-16T02:54:42.503Z,6.04
2023-04-16T02:55:54.829Z,6.06
2023-04-16T02:57:07.303Z,6.09
2023-04-16T02:58:39.914Z,6.11
2023-04-16T02:59:55.876Z,6.09
2023-04-16T03:01:28.821Z,6.07
2023-04-16T03:02:41.538Z,6.03
2023-04-16T03:04:15.560Z,6.01
2023-04-16T03:12:04.596Z,6.05
2023-04-16T03:13:30.192Z,6.03
2023-04-16T03:15:02.709Z,6.03
2023-04-16T03:16:35.396Z,5.98
2023-04-16T03:18:07.925Z,5.95
2023-04-16T03:19:40.453Z,5.96
2023-04-16T03:21:13.004Z,5.98
2023-04-16T03:22:45.586Z,5.96
2023-04-16T03:24:18.347Z,5.94
2023-04-16T03:25:39.803Z,5.93
2023-04-16T03:35:02.027Z,5.97
2023-04-16T03:36:14.440Z,5.97
2023-04-16T03:37:27.030Z,5.98
2023-04-16T03:38:59.658Z,5.98
2023-04-16T03:40:13.628Z,5.98
2023-04-16T03:41:34.868Z,5.98
2023-04-16T03:42:47.258Z,5.99
2023-04-16T03:44:13.546Z,6.00
2023-04-16T03:45:46.226Z,6.00
2023-04-16T03:47:19.048Z,5.98
2023-04-16T04:08:09.827Z,6.10
2023-04-16T04:09:21.908Z,6.09
2023-04-16T04:10:54.378Z,6.10
2023-04-16T04:12:27.186Z,6.11
2023-04-16T04:14:00.641Z,6.09
2023-04-16T04:29:24.666Z,6.38
2023-04-16T04:30:57.163Z,6.39
2023-04-16T04:32:29.728Z,6.45
2023-04-16T04:34:02.286Z,6.49
2023-04-16T04:35:34.736Z,6.54
2023-04-16T04:36:53.639Z,6.60
2023-04-16T04:38:19.573Z,6.64
2023-04-16T04:39:54.032Z,6.69
2023-04-16T04:41:13.265Z,6.74
2023-04-16T04:42:35.177Z,6.77
2023-04-16T04:44:07.910Z,6.82
2023-04-16T04:45:31.690Z,6.88
2023-04-16T04:47:05.684Z,6.94
2023-04-16T04:48:38.513Z,6.98
2023-04-16T04:53:18.944Z,7.14
2023-04-16T04:55:06.472Z,7.23
2023-04-16T04:56:39.172Z,7.31
2023-04-16T04:58:12.916Z,7.38
2023-04-16T04:59:45.832Z,7.45
2023-04-16T05:00:58.219Z,7.52
2023-04-16T05:02:10.856Z,7.55
2023-04-16T05:03:44.090Z,7.60
2023-04-16T05:05:09.245Z,7.64
2023-04-16T05:06:43.298Z,7.70
2023-04-16T05:08:21.543Z,7.75
2023-04-16T05:09:59.835Z,7.83
2023-04-16T05:11:32.432Z,7.91
2023-04-16T05:13:05.147Z,7.95
2023-04-16T05:14:39.073Z,7.98
2023-04-16T05:16:05.258Z,8.02
2023-04-16T05:17:19.227Z,8.02
2023-04-16T05:25:57.645Z,8.08
2023-04-16T05:27:19.976Z,8.11
2023-04-16T05:45:02.081Z,8.50
2023-04-16T05:46:36.075Z,8.51
2023-04-16T05:47:48.862Z,8.53
2023-04-16T05:49:21.783Z,8.56
2023-04-16T05:50:54.494Z,8.63
2023-04-16T05:52:10.125Z,8.70
2023-04-16T05:53:43.849Z,8.72
2023-04-16T05:55:16.641Z,8.71
2023-04-16T05:56:49.085Z,8.75
2023-04-16T05:58:11.761Z,8.78
2023-04-16T06:02:37.821Z,8.78
2023-04-16T06:03:59.863Z,8.73
2023-04-16T06:05:33.650Z,8.68
2023-04-16T06:07:11.947Z,8.59
2023-04-16T06:08:44.631Z,8.55
2023-04-16T06:10:06.010Z,8.51
2023-04-16T06:11:21.359Z,8.47
2023-04-16T06:12:53.874Z,8.50
2023-04-16T06:14:27.293Z,8.53
2023-04-16T06:21:46.177Z,8.67
2023-04-16T06:23:23.618Z,8.75
2023-04-16T06:24:57.010Z,8.75
2023-04-16T06:26:32.258Z,8.67
2023-04-16T06:38:07.797Z,9.13
2023-04-16T06:39:31.585Z,9.16
2023-04-16T06:41:05.614Z,9.25
2023-04-16T06:42:39.453Z,9.31
2023-04-16T06:44:13.497Z,9.30
2023-04-16T06:45:27.440Z,9.29
2023-04-16T06:46:50.368Z,9.32
2023-04-16T06:47:56.798Z,9.34
2023-04-16T06:49:30.409Z,9.32
2023-04-16T06:51:04.467Z,9.32
2023-04-16T06:52:31.110Z,9.32
2023-04-16T06:54:05.305Z,9.36
2023-04-16T06:55:39.734Z,9.36
2023-04-16T07:01:28.737Z,9.45
2023-04-16T07:09:25.697Z,9.48
2023-04-16T07:10:45.835Z,9.46
2023-04-16T07:12:19.625Z,9.53
2023-04-16T07:13:53.470Z,9.57
2023-04-16T07:15:26.181Z,9.58
2023-04-16T07:16:58.730Z,9.63
2023-04-16T07:18:31.520Z,9.77
2023-04-16T07:20:04.114Z,9.77
2023-04-16T07:21:12.257Z,9.80
2023-04-16T07:22:33.884Z,9.87
2023-04-16T07:24:07.768Z,9.83
2023-04-16T07:36:48.332Z,9.90
2023-04-16T07:38:20.926Z,9.96
2023-04-16T07:39:55.118Z,10.00
2023-04-16T07:41:28.674Z,9.94
2023-04-16T07:43:01.437Z,9.95
2023-04-16T07:44:35.145Z,10.06
2023-04-16T07:46:08.034Z,10.20
2023-04-16T07:55:29.659Z,10.34
2023-04-16T07:57:02.060Z,10.29
2023-04-16T07:58:09.942Z,10.18
2023-04-16T07:59:31.237Z,10.18
2023-04-16T08:00:54.133Z,10.29
2023-04-16T08:02:26.849Z,10.45
2023-04-16T08:03:39.477Z,10.63
2023-04-16T08:05:13.287Z,10.75
2023-04-16T08:06:18.883Z,10.85
2023-04-16T08:07:50.274Z,10.90
2023-04-16T08:09:22.826Z,10.94
2023-04-16T08:10:35.013Z,11.02
2023-04-16T08:11:47.775Z,10.99
2023-04-16T08:13:13.418Z,10.97
2023-04-16T08:14:45.951Z,11.00
2023-04-16T08:16:09.030Z,11.08
2023-04-16T08:17:30.611Z,11.14
2023-04-16T08:19:04.305Z,11.15
2023-04-16T08:20:38.268Z,11.14
2023-04-16T08:24:06.375Z,11.18
2023-04-16T08:25:19.484Z,11.31
2023-04-16T08:26:51.914Z,11.46
2023-04-16T08:28:13.580Z,11.60
2023-04-16T08:39:14.550Z,12.23
2023-04-16T08:40:48.665Z,12.28
2023-04-16T08:42:21.253Z,12.33
2023-04-16T08:43:39.072Z,12.27
2023-04-16T08:45:11.597Z,12.29
2023-04-16T08:46:44.506Z,12.21
2023-04-16T08:47:56.910Z,12.07
2023-04-16T08:49:29.775Z,12.01
2023-04-16T08:51:05.677Z,12.00
2023-04-16T08:52:40.220Z,11.99
2023-04-16T08:54:14.493Z,12.05
2023-04-16T08:55:48.882Z,12.11
2023-04-16T08:57:23.305Z,12.22
2023-04-16T08:58:57.557Z,12.34
2023-04-16T09:05:18.542Z,12.38
2023-04-16T09:06:51.038Z,12.41
2023-04-16T09:08:26.166Z,12.45
2023-04-16T09:09:59.014Z,12.47
2023-04-16T09:11:11.170Z,12.61
2023-04-16T09:12:43.972Z,12.66
2023-04-16T09:14:17.797Z,12.62
2023-04-16T09:15:51.988Z,12.64
2023-04-16T09:16:57.412Z,12.71
2023-04-16T09:18:30.051Z,12.78
2023-04-16T09:20:03.960Z,12.84
2023-04-16T09:22:29.764Z,12.90
2023-04-16T09:24:03.807Z,12.89
2023-04-16T09:26:43.227Z,12.82
2023-04-16T09:28:18.375Z,12.74
2023-04-16T09:29:52.051Z,12.78
2023-04-16T09:31:08.384Z,12.82
2023-04-16T09:32:44.497Z,12.78
2023-04-16T10:01:28.080Z,13.35
2023-04-16T10:03:01.999Z,13.30
2023-04-16T10:04:34.893Z,13.34
2023-04-16T10:06:07.616Z,13.38
2023-04-16T10:07:43.456Z,13.35
2023-04-16T10:11:15.361Z,13.35
2023-04-16T10:12:48.998Z,13.35
2023-04-16T10:14:21.472Z,13.39
2023-04-16T10:15:54.248Z,13.40
2023-04-16T10:17:06.627Z,13.35
2023-04-16T10:18:39.808Z,13.29
2023-04-16T10:19:52.667Z,13.29
2023-04-16T10:21:05.177Z,13.29
2023-04-16T10:22:38.324Z,13.34
2023-04-16T10:24:12.337Z,13.45
2023-04-16T10:25:46.239Z,13.54
2023-04-16T10:26:58.704Z,13.56
2023-04-16T10:28:31.054Z,13.62
2023-04-16T10:30:03.814Z,13.70
2023-04-16T10:31:36.457Z,13.75
2023-04-16T10:33:09.684Z,13.76
2023-04-16T10:34:47.879Z,13.76
2023-04-16T10:36:13.354Z,13.79
2023-04-16T10:45:52.551Z,14.07
2023-04-16T10:47:25.077Z,14.08
2023-04-16T10:49:11.271Z,14.10
2023-04-16T10:50:44.120Z,14.11
2023-04-16T10:52:25.512Z,14.06
2023-04-16T10:54:07.194Z,14.06
2023-04-16T10:55:39.897Z,14.13
2023-04-16T10:57:13.547Z,14.15
2023-04-16T10:58:46.299Z,14.15
2023-04-16T11:00:10.069Z,14.14
2023-04-16T11:05:03.686Z,14.22
2023-04-16T11:14:29.778Z,14.62
2023-04-16T11:15:42.967Z,14.60
2023-04-16T11:17:18.143Z,14.59
2023-04-16T11:18:54.554Z,14.63
2023-04-16T11:20:30.205Z,14.71
2023-04-16T11:21:53.367Z,14.72
2023-04-16T11:23:27.450Z,14.67
2023-04-16T11:25:02.408Z,14.66
2023-04-16T11:26:26.396Z,14.61
2023-04-16T11:50:28.273Z,14.92
2023-04-16T11:52:00.913Z,14.99
2023-04-16T11:53:33.422Z,15.11
2023-04-16T11:55:06.100Z,15.20
2023-04-16T11:56:44.907Z,15.29
2023-04-16T11:58:17.608Z,15.37
2023-04-16T12:00:01.615Z,15.42
2023-04-16T12:01:24.282Z,15.47
2023-04-16T12:02:57.140Z,15.55
2023-04-16T12:04:38.950Z,15.70
2023-04-16T12:06:26.252Z,15.73
2023-04-16T12:08:04.837Z,15.70
2023-04-16T12:16:08.827Z,15.93
2023-04-16T12:17:56.300Z,15.88
2023-04-16T12:19:41.093Z,15.89
2023-04-16T12:21:02.470Z,15.89
2023-04-16T12:22:34.673Z,15.89
2023-04-16T12:25:42.129Z,15.85
2023-04-16T12:33:48.750Z,16.17
2023-04-16T12:35:22.068Z,16.14
2023-04-16T12:37:00.768Z,16.18
2023-04-16T12:38:24.245Z,16.24
2023-04-16T12:39:57.254Z,16.28
2023-04-16T12:41:30.005Z,16.33
2023-04-16T12:42:35.805Z,16.24
2023-04-16T12:44:08.647Z,16.13
2023-04-16T12:47:40.469Z,16.09
2023-04-16T12:49:13.059Z,16.10
2023-04-16T12:50:16.821Z,16.12
2023-04-16T12:51:49.363Z,16.13
2023-04-16T12:53:01.618Z,16.12
2023-04-16T12:54:05.317Z,16.08
2023-04-16T12:55:17.492Z,16.05
2023-04-16T12:56:50.051Z,16.03
2023-04-16T12:58:22.650Z,16.00
2023-04-16T12:59:55.198Z,15.98
2023-04-16T13:01:27.887Z,15.96
2023-04-16T13:09:20.202Z,15.90
2023-04-16T13:10:41.774Z,15.90
2023-04-16T13:12:14.227Z,15.91
2023-04-16T13:13:46.928Z,15.92
2023-04-16T13:15:00.674Z,15.79
2023-04-16T13:16:27.091Z,15.77
2023-04-16T13:17:59.852Z,15.80
2023-04-16T13:19:12.258Z,15.83
2023-04-16T13:20:45.113Z,15.81
2023-04-16T13:22:17.558Z,15.81
2023-04-16T13:23:50.439Z,15.81
2023-04-16T13:25:02.804Z,15.87
2023-04-16T13:26:19.430Z,15.90
2023-04-16T13:41:57.822Z,15.96
2023-04-16T13:43:22.837Z,15.94
2023-04-16T13:44:45.733Z,15.94
2023-04-16T13:46:18.228Z,15.93
2023-04-16T14:55:42.611Z,16.31
2023-04-16T14:57:15.296Z,16.28
2023-04-16T14:58:39.272Z,16.28
2023-04-16T14:59:51.804Z,16.32
2023-04-16T15:01:04.154Z,16.35
2023-04-16T15:02:37.287Z,16.39
2023-04-16T15:04:10.418Z,16.41
2023-04-16T15:05:35.814Z,16.43
2023-04-16T15:06:56.871Z,16.43
2023-04-16T15:08:12.255Z,16.38
2023-04-16T15:09:44.917Z,16.34
2023-04-16T15:18:40.738Z,16.03
2023-04-16T15:20:14.368Z,16.01
2023-04-16T15:21:48.848Z,15.97
2023-04-16T15:23:22.857Z,15.90
2023-04-16T15:48:13.360Z,15.08
2023-04-16T15:49:46.043Z,15.03
2023-04-16T15:51:19.114Z,15.00
2023-04-16T15:52:52.620Z,14.96
2023-04-16T15:54:26.607Z,14.93
2023-04-16T16:18:36.744Z,14.56
2023-04-16T16:20:09.360Z,14.53
2023-04-16T16:21:42.118Z,14.50
2023-04-16T16:23:14.924Z,14.46
2023-04-16T16:24:27.699Z,14.43
2023-04-16T16:26:01.633Z,14.41
2023-04-16T16:34:30.319Z,14.29
2023-04-16T16:36:04.380Z,14.26
2023-04-16T16:37:31.297Z,14.25
2023-04-16T16:38:58.097Z,14.21
2023-04-16T16:40:25.063Z,14.19
2023-04-16T16:41:40.379Z,14.18
2023-04-16T16:43:15.035Z,14.17
2023-04-16T16:44:50.344Z,14.13
2023-04-16T16:46:31.051Z,14.09
2023-04-16T16:48:05.352Z,14.07
2023-04-16T16:49:32.043Z,14.04
2023-04-16T16:51:07.127Z,14.02
2023-04-16T17:13:30.398Z,13.74
2023-04-16T17:14:54.159Z,13.73
2023-04-16T17:27:27.929Z,13.67
2023-04-16T17:29:00.502Z,13.63
2023-04-16T17:30:33.119Z,13.60
2023-04-16T17:32:06.692Z,13.58
2023-04-16T17:33:39.378Z,13.54
2023-04-16T17:35:13.279Z,13.51
2023-04-16T17:36:48.355Z,13.49
2023-04-16T17:38:22.217Z,13.47
2023-04-16T17:44:59.920Z,13.45
2023-04-16T17:46:32.230Z,13.45
2023-04-16T17:48:05.275Z,13.44
2023-04-16T17:49:17.395Z,13.42
2023-04-16T17:50:49.924Z,13.39
2023-04-16T17:52:11.484Z,13.37
2023-04-16T17:53:44.014Z,13.37
2023-04-16T17:55:02.981Z,13.37
2023-04-16T17:58:34.532Z,13.39
2023-04-16T18:00:07.135Z,13.37
2023-04-16T18:01:31.512Z,13.37
2023-04-16T18:03:04.376Z,13.36
2023-04-16T18:04:16.970Z,13.36
2023-04-16T18:05:49.926Z,13.33
2023-04-16T18:07:22.554Z,13.33
2023-04-16T18:08:30.653Z,13.32
2023-04-16T18:09:43.189Z,13.32
2023-04-16T18:10:56.952Z,13.32
2023-04-16T18:12:09.184Z,13.31
2023-04-16T18:13:42.143Z,13.33
2023-04-16T18:14:54.699Z,13.31
2023-04-16T18:16:07.425Z,13.29
2023-04-16T18:17:34.581Z,13.28
2023-04-16T18:19:07.437Z,13.27
2023-04-16T18:20:10.633Z,13.27
2023-04-16T18:21:33.168Z,13.25
2023-04-16T18:22:45.329Z,13.24
2023-04-16T18:23:55.436Z,13.22
2023-04-16T18:25:29.934Z,13.20
2023-04-16T18:26:49.525Z,13.17
2023-04-16T18:28:22.190Z,13.13
2023-04-16T18:29:55.375Z,13.12
2023-04-16T18:31:03.445Z,13.12
2023-04-16T18:32:35.077Z,13.11
2023-04-16T18:33:57.531Z,13.10
2023-04-16T18:35:13.976Z,13.10
2023-04-16T18:36:46.570Z,13.09
2023-04-16T18:38:19.484Z,13.08
2023-04-16T18:39:31.628Z,13.05
2023-04-16T18:41:04.568Z,13.02
2023-04-16T18:42:26.403Z,13.00
2023-04-16T18:43:40.672Z,12.99
2023-04-16T18:45:15.786Z,12.97
2023-04-16T18:46:46.217Z,12.95
2023-04-16T18:48:18.828Z,12.94
2023-04-16T18:49:41.366Z,12.91
2023-04-16T18:50:36.397Z,12.90
2023-04-16T18:52:01.575Z,12.88
2023-04-16T18:53:34.122Z,12.86
2023-04-16T18:54:55.266Z,12.83
2023-04-16T18:56:28.056Z,12.81
2023-04-16T18:57:49.187Z,12.78
2023-04-16T18:59:10.911Z,12.75
2023-04-16T19:01:53.915Z,12.71
2023-04-16T19:03:07.273Z,12.70
2023-04-16T19:04:40.225Z,12.68
2023-04-16T19:06:13.241Z,12.65
2023-04-16T19:07:45.833Z,12.63
2023-04-16T19:15:54.579Z,12.49
2023-04-16T19:17:28.158Z,12.47
2023-04-16T19:18:33.921Z,12.45
2023-04-16T19:19:35.495Z,12.45
2023-04-16T19:20:47.742Z,12.44
2023-04-16T19:22:20.262Z,12.41
2023-04-16T19:23:45.632Z,12.38
2023-04-16T19:33:35.610Z,12.16
2023-04-16T19:35:11.399Z,12.14
2023-04-16T19:36:43.972Z,12.13
2023-04-16T19:38:16.551Z,12.12
2023-04-16T19:39:49.922Z,12.09
2023-04-16T19:41:24.436Z,12.05
2023-04-16T19:42:56.844Z,12.01
2023-04-16T19:49:49.574Z,11.97
2023-04-16T19:51:22.555Z,11.97
2023-04-16T19:52:44.019Z,11.96
2023-04-16T19:54:06.610Z,11.97
2023-04-16T20:06:26.584Z,11.89
2023-04-16T20:07:59.233Z,11.86
2023-04-16T20:09:31.785Z,11.84
2023-04-16T20:11:05.425Z,11.83
2023-04-16T20:12:38.286Z,11.82
2023-04-16T20:23:07.843Z,11.74
2023-04-16T20:24:21.404Z,11.72
2023-04-16T20:25:55.390Z,11.69
2023-04-16T20:27:12.466Z,11.68
2023-04-16T20:28:46.457Z,11.67
2023-04-16T20:30:20.383Z,11.65
2023-04-16T20:31:55.535Z,11.65
2023-04-16T20:33:18.606Z,11.63
2023-04-16T20:47:55.805Z,11.54
2023-04-16T20:49:08.319Z,11.52
2023-04-16T20:50:23.522Z,11.52
2023-04-16T20:52:02.297Z,11.51
2023-04-16T20:53:34.863Z,11.51
2023-04-16T20:54:54.821Z,11.50
2023-04-16T20:56:27.206Z,11.51
2023-04-16T20:57:45.747Z,11.50
2023-04-16T20:59:03.329Z,11.49
2023-04-16T21:00:19.997Z,11.47
2023-04-16T21:01:52.754Z,11.48
2023-04-16T21:03:25.617Z,11.47
2023-04-16T21:04:31.098Z,11.48
2023-04-16T21:05:53.823Z,11.47
2023-04-16T21:07:26.341Z,11.45
2023-04-16T21:08:57.820Z,11.41
2023-04-16T21:10:19.516Z,11.40
2023-04-16T21:12:58.068Z,11.41
2023-04-16T21:14:29.145Z,11.42
2023-04-16T21:15:35.443Z,11.43
2023-04-16T21:16:43.894Z,11.43
2023-04-16T21:18:05.513Z,11.43
2023-04-16T21:19:27.383Z,11.44
2023-04-16T21:21:00.142Z,11.43
2023-04-16T21:22:05.278Z,11.41
2023-04-16T21:23:30.642Z,11.40
2023-04-16T21:24:56.557Z,11.35
2023-04-16T21:26:29.257Z,11.34
2023-04-16T21:27:21.464Z,11.33
2023-04-16T21:28:34.563Z,11.34
2023-04-16T21:29:20.248Z,11.35
2023-04-16T21:30:45.769Z,11.35
2023-04-16T21:32:18.238Z,11.35
2023-04-16T21:33:50.797Z,11.36
2023-04-16T21:35:11.891Z,11.37
2023-04-16T21:36:44.522Z,11.38
2023-04-16T21:38:17.173Z,11.38
2023-04-16T21:39:49.740Z,11.38
2023-04-16T21:41:21.121Z,11.39
2023-04-16T21:42:53.677Z,11.42
2023-04-16T21:44:26.490Z,11.43
2023-04-16T21:45:58.969Z,11.43
2023-04-16T21:47:31.986Z,11.43
2023-04-16T21:48:47.868Z,11.44
2023-04-16T21:50:09.167Z,11.45
2023-04-16T21:51:42.117Z,11.47
2023-04-16T21:52:54.370Z,11.46
2023-04-16T21:54:20.508Z,11.43
2023-04-16T21:55:42.928Z,11.42
2023-04-16T21:57:15.134Z,11.42
2023-04-16T21:58:36.962Z,11.43
2023-04-16T21:59:51.434Z,11.41
2023-04-16T22:03:58.390Z,11.37
2023-04-16T22:05:17.075Z,11.35
2023-04-16T22:06:39.995Z,11.34
2023-04-16T22:08:23.984Z,11.33
2023-04-16T22:09:47.257Z,11.32
2023-04-16T22:10:41.100Z,11.29
2023-04-16T22:12:12.533Z,11.28
2023-04-16T22:13:45.108Z,11.25
2023-04-16T22:15:10.485Z,11.25
2023-04-16T22:16:37.755Z,11.26
2023-04-16T22:18:10.304Z,11.26
2023-04-16T22:19:42.850Z,11.26
2023-04-16T22:21:15.951Z,11.27
2023-04-16T22:24:09.108Z,11.29
2023-04-16T22:25:23.108Z,11.29
2023-04-16T22:26:56.677Z,11.29
2023-04-16T22:28:30.586Z,11.29
2023-04-16T22:30:03.373Z,11.30
2023-04-16T22:42:44.883Z,11.27
2023-04-16T22:44:11.883Z,11.26
2023-04-16T22:45:37.639Z,11.25
2023-04-16T22:47:01.619Z,11.25
2023-04-16T22:50:08.054Z,11.31
2023-04-16T22:51:29.311Z,11.30
2023-04-16T22:52:51.947Z,11.30
2023-04-16T22:54:24.485Z,11.31
2023-04-16T22:55:56.958Z,11.32
2023-04-16T22:57:18.156Z,11.31
2023-04-16T22:58:50.574Z,11.31
2023-04-16T23:00:23.214Z,11.29
2023-04-16T23:09:28.375Z,11.34
2023-04-16T23:11:02.382Z,11.32
2023-04-16T23:12:25.163Z,11.31
2023-04-16T23:13:39.057Z,11.31
2023-04-16T23:15:13.008Z,11.31
2023-04-16T23:16:48.028Z,11.31
2023-04-16T23:18:23.104Z,11.30
2023-04-16T23:19:57.035Z,11.30
2023-04-16T23:21:31.060Z,11.30
2023-04-16T23:23:06.315Z,11.29
2023-04-16T23:24:41.406Z,11.29
2023-04-16T23:26:16.870Z,11.27
2023-04-16T23:27:52.264Z,11.27
2023-04-16T23:29:27.689Z,11.27
2023-04-16T23:31:01.847Z,11.25
2023-04-16T23:32:35.882Z,11.24
2023-04-16T23:34:11.365Z,11.23
2023-04-16T23:35:47.115Z,11.23
2023-04-16T23:37:22.474Z,11.24
2023-04-16T23:38:58.093Z,11.26
2023-04-16T23:40:33.318Z,11.26
2023-04-16T23:56:05.562Z,11.20
2023-04-16T23:57:39.368Z,11.18
2023-04-16T23:59:13.788Z,11.19
